Time;durP1;ratioP1;P1;durP2;ratioP2;P2;SDS_P1;SDS_P2;PMS_P1;PMS_P2;Temp;Humidity;BMP_temperature;BMP_pressure;BME280_temperature;BME280_humidity;BME280_pressure;Samples;Min_cycle;Max_cycle;Signal;HPM_P1;HPM_P2
2023/03/27 00:00:26;;;;;;;14.63;10.00;;;;;;;9.62;80.03;99390.23;1674234;84;21403;-59
2023/03/27 00:03:35;;;;;;;12.35;9.43;;;;;;;9.61;80.09;99396.72;1693903;84;21251;-60
2023/03/27 00:06:44;;;;;;;12.95;9.60;;;;;;;9.59;80.11;99393.36;1674381;85;21233;-59
2023/03/27 00:09:50;;;;;;;14.18;10.05;;;;;;;9.57;80.04;99391.84;1674233;86;21211;-60
2023/03/27 00:12:57;;;;;;;16.42;10.55;;;;;;;9.53;79.99;99394.10;1696466;84;21193;-60
2023/03/27 00:16:04;;;;;;;13.58;10.00;;;;;;;9.49;80.00;99392.81;1674636;85;21229;-59
2023/03/27 00:19:12;;;;;;;15.80;10.88;;;;;;;9.44;79.98;99393.91;1693812;84;21714;-59
2023/03/27 00:22:19;;;;;;;13.60;10.40;;;;;;;9.39;80.06;99388.71;1657352;85;21237;-60
2023/03/27 00:25:26;;;;;;;14.70;10.48;;;;;;;9.36;80.13;99387.19;1693763;84;21220;-59
2023/03/27 00:28:34;;;;;;;14.05;10.30;;;;;;;9.36;80.21;99385.83;1675122;85;21169;-60
2023/03/27 00:31:40;;;;;;;13.68;10.68;;;;;;;9.37;80.25;99388.05;1693765;84;21216;-59
2023/03/27 00:34:46;;;;;;;12.80;9.93;;;;;;;9.38;80.23;99389.73;1693973;85;21236;-59
2023/03/27 00:37:53;;;;;;;14.10;9.78;;;;;;;9.38;80.23;99381.53;1692761;84;21261;-59
2023/03/27 00:41:01;;;;;;;14.23;10.78;;;;;;;9.38;80.21;99387.85;1694146;84;21363;-61
2023/03/27 00:44:10;;;;;;;12.63;10.25;;;;;;;9.37;80.18;99383.41;1694491;84;21189;-60
2023/03/27 00:47:17;;;;;;;12.58;10.05;;;;;;;9.36;80.17;99379.00;1694197;84;21224;-60
2023/03/27 00:50:27;;;;;;;14.87;10.45;;;;;;;9.36;80.18;99381.73;1695086;84;21385;-59
2023/03/27 00:53:36;;;;;;;12.98;9.75;;;;;;;9.36;80.26;99379.51;1694325;84;21354;-60
2023/03/27 00:56:42;;;;;;;14.70;10.30;;;;;;;9.36;80.34;99374.90;1694141;84;21233;-58
2023/03/27 00:59:49;;;;;;;16.75;10.03;;;;;;;9.35;80.35;99373.22;1675329;85;21193;-59
2023/03/27 01:02:56;;;;;;;13.30;10.60;;;;;;;9.32;80.40;99373.61;1694133;84;21221;-60
2023/03/27 01:06:04;;;;;;;16.65;10.88;;;;;;;9.29;80.43;99383.55;1674551;85;21449;-60
2023/03/27 01:09:11;;;;;;;12.95;10.18;;;;;;;9.25;80.46;99390.93;1694134;84;21197;-60
2023/03/27 01:12:29;;;;;;;17.92;11.22;;;;;;;9.19;80.47;99393.92;1675051;85;21245;-59
2023/03/27 01:15:53;;;;;;;13.70;10.25;;;;;;;9.10;80.47;99397.27;1693910;84;21201;-60
2023/03/27 01:19:45;;;;;;;13.88;10.05;;;;;;;9.02;80.48;99396.55;1674866;85;21358;-61
2023/03/27 01:23:32;;;;;;;16.40;10.38;;;;;;;8.95;80.52;99403.28;1694029;84;21220;-60
2023/03/27 01:27:18;;;;;;;13.80;10.78;;;;;;;8.85;80.52;99405.94;1673966;85;21224;-59
2023/03/27 01:30:47;;;;;;;19.57;11.00;;;;;;;8.75;80.61;99406.22;1693749;84;21268;-59
2023/03/27 01:34:28;;;;;;;14.07;10.68;;;;;;;8.68;80.65;99404.44;1674809;85;21201;-59
2023/03/27 01:38:02;;;;;;;15.80;10.55;;;;;;;8.61;80.66;99408.97;1693247;84;21197;-60
2023/03/27 01:41:17;;;;;;;16.07;11.38;;;;;;;8.56;80.72;99406.78;1674313;85;21410;-59
2023/03/27 01:44:34;;;;;;;14.83;10.32;;;;;;;8.50;80.69;99404.80;1693630;84;21236;-61
2023/03/27 01:48:11;;;;;;;13.08;9.55;;;;;;;8.46;80.76;99409.46;1674371;85;21343;-60
2023/03/27 01:51:22;;;;;;;15.85;10.00;;;;;;;8.40;80.81;99404.75;1674159;85;21482;-59
2023/03/27 01:54:42;;;;;;;14.95;10.93;;;;;;;8.37;80.84;99410.05;1693864;84;21200;-60
2023/03/27 01:58:12;;;;;;;15.08;10.58;;;;;;;8.34;80.83;99402.78;1674390;85;21289;-59
2023/03/27 02:01:20;;;;;;;15.00;11.18;;;;;;;8.29;80.79;99410.12;1693733;84;21216;-59
2023/03/27 02:04:41;;;;;;;18.15;11.73;;;;;;;8.24;80.78;99401.68;1658988;85;21347;-59
2023/03/27 02:07:52;;;;;;;14.03;10.55;;;;;;;8.19;80.78;99403.22;1693642;84;21228;-60
2023/03/27 02:11:03;;;;;;;15.58;10.72;;;;;;;8.16;80.81;99404.95;1674538;85;21252;-61
2023/03/27 02:14:15;;;;;;;15.30;10.93;;;;;;;8.10;80.90;99403.83;1693709;84;21205;-59
2023/03/27 02:17:24;;;;;;;15.35;10.40;;;;;;;8.06;80.94;99410.66;1674889;85;21264;-58
2023/03/27 02:20:31;;;;;;;17.25;11.48;;;;;;;8.00;80.91;99405.09;1674131;86;21229;-60
2023/03/27 02:23:38;;;;;;;34.08;11.75;;;;;;;7.96;80.97;99411.41;1693827;84;21197;-60
2023/03/27 02:26:46;;;;;;;41.88;11.57;;;;;;;7.93;80.92;99415.88;1674571;85;21252;-61
2023/03/27 02:30:01;;;;;;;37.70;10.10;;;;;;;7.91;80.87;99410.28;1693607;84;21216;-59
2023/03/27 02:33:46;;;;;;;52.00;10.00;;;;;;;7.88;80.76;99405.20;1674688;85;21245;-60
2023/03/27 02:37:04;;;;;;;72.10;10.30;;;;;;;7.83;80.64;99411.70;1694814;84;21221;-58
2023/03/27 02:40:42;;;;;;;31.05;9.20;;;;;;;7.78;80.58;99412.77;1692078;81;21300;-59
2023/03/27 02:44:12;;;;;;;46.35;9.13;;;;;;;7.70;80.48;99420.99;1736799;82;21204;-60
2023/03/27 02:47:27;;;;;;;39.78;8.85;;;;;;;7.61;80.42;99427.85;1739130;82;21232;-60
2023/03/27 02:50:55;;;;;;;22.90;7.80;;;;;;;7.53;80.43;99437.44;1739111;82;21220;-59
2023/03/27 02:54:20;;;;;;;16.48;7.35;;;;;;;7.46;80.40;99431.53;1739319;82;21375;-61
2023/03/27 02:57:30;;;;;;;26.95;8.58;;;;;;;7.37;80.42;99434.80;1731623;82;21259;-59
2023/03/27 03:00:47;;;;;;;22.70;10.38;;;;;;;7.31;80.48;99438.25;1739168;82;21414;-59
2023/03/27 03:04:16;;;;;;;53.25;10.88;;;;;;;7.26;80.49;99443.91;1739108;82;21236;-59
2023/03/27 03:07:33;;;;;;;66.40;9.85;;;;;;;7.23;80.54;99438.28;1739126;82;21212;-59
2023/03/27 03:10:39;;;;;;;59.23;10.32;;;;;;;7.21;80.64;99449.88;1739278;82;21425;-59
2023/03/27 03:13:47;;;;;;;58.10;10.45;;;;;;;7.20;80.70;99444.09;1739172;82;21176;-59
2023/03/27 03:16:57;;;;;;;67.67;11.43;;;;;;;7.20;80.74;99450.89;1739167;82;21226;-59
2023/03/27 03:20:04;;;;;;;48.23;11.03;;;;;;;7.21;80.79;99456.69;1738989;82;21259;-59
2023/03/27 03:23:11;;;;;;;48.30;10.15;;;;;;;7.18;80.73;99460.27;1739263;82;21240;-64
2023/03/27 03:26:18;;;;;;;25.85;9.38;;;;;;;7.12;80.70;99471.33;1739172;82;21204;-63
2023/03/27 03:29:28;;;;;;;19.23;9.68;;;;;;;7.06;80.61;99472.55;1739295;82;21208;-63
2023/03/27 03:32:36;;;;;;;19.98;9.73;;;;;;;6.96;80.57;99478.19;1739314;82;21232;-62
2023/03/27 03:35:45;;;;;;;20.50;10.68;;;;;;;6.87;80.55;99471.09;1739261;82;21243;-63
2023/03/27 03:38:58;;;;;;;20.92;10.70;;;;;;;6.83;80.61;99464.31;1871249;76;22224;-63
2023/03/27 03:42:06;;;;;;;20.57;9.53;;;;;;;6.72;80.67;99467.41;1800878;77;21456;-63
2023/03/27 03:45:16;;;;;;;11.80;8.75;;;;;;;6.69;80.75;99473.16;1790380;79;21215;-62
2023/03/27 03:48:22;;;;;;;21.97;10.90;;;;;;;6.64;80.74;99471.50;1801488;78;21186;-62
2023/03/27 03:51:30;;;;;;;13.75;9.38;;;;;;;6.59;80.71;99483.41;1790639;78;21171;-62
2023/03/27 03:54:37;;;;;;;15.98;10.63;;;;;;;6.53;80.72;99493.61;1790552;78;21171;-62
2023/03/27 03:57:50;;;;;;;13.45;9.38;;;;;;;6.50;80.85;99501.25;1790188;78;21254;-63
2023/03/27 04:00:53;;;;;;;12.50;8.90;;;;;;;6.48;80.95;99492.41;1729237;81;21295;-63
2023/03/27 04:04:08;;;;;;;15.05;10.85;;;;;;;6.47;80.98;99489.37;1790623;79;21310;-64
2023/03/27 04:07:20;;;;;;;39.92;26.65;;;;;;;6.44;81.02;99502.77;1787661;78;21234;-64
2023/03/27 04:10:29;;;;;;;19.95;14.18;;;;;;;6.43;81.03;99505.16;1788320;79;21163;-64
2023/03/27 04:13:39;;;;;;;16.65;12.58;;;;;;;6.42;81.02;99508.91;1814458;79;21198;-63
2023/03/27 04:16:47;;;;;;;15.35;11.00;;;;;;;6.42;81.02;99508.91;1812708;78;21194;-62
2023/03/27 04:19:56;;;;;;;15.30;11.38;;;;;;;6.43;81.07;99509.24;1812494;79;21210;-63
2023/03/27 04:23:01;;;;;;;14.10;11.03;;;;;;;6.45;81.11;99515.37;1812881;79;21217;-65
2023/03/27 04:26:10;;;;;;;14.25;10.70;;;;;;;6.48;81.15;99520.95;1812856;78;21202;-62
2023/03/27 04:29:32;;;;;;;16.00;11.97;;;;;;;6.50;81.19;99512.95;1766495;79;21384;-62
2023/03/27 04:33:00;;;;;;;14.03;9.93;;;;;;;6.52;81.21;99512.28;1818965;78;21174;-63
2023/03/27 04:36:16;;;;;;;13.68;10.23;;;;;;;6.58;81.31;99515.67;1783994;79;21195;-64
2023/03/27 04:39:42;;;;;;;12.93;9.85;;;;;;;6.62;81.36;99515.69;1811147;78;21336;-63
2023/03/27 04:42:49;;;;;;;15.58;10.28;;;;;;;6.68;81.39;99508.19;1816162;79;21635;-63
2023/03/27 04:45:56;;;;;;;17.48;12.25;;;;;;;6.76;81.42;99507.31;1787837;79;21335;-62
2023/03/27 04:49:02;;;;;;;32.13;22.98;;;;;;;6.83;81.45;99527.38;1766492;79;22076;-63
2023/03/27 04:52:15;;;;;;;20.40;16.80;;;;;;;6.89;81.45;99526.17;1764190;80;21194;-64
2023/03/27 04:55:24;;;;;;;17.25;11.57;;;;;;;6.94;81.41;99527.87;1758912;80;21232;-64
2023/03/27 04:58:32;;;;;;;24.37;15.20;;;;;;;6.98;81.35;99533.78;1755735;80;21166;-62
2023/03/27 05:01:41;;;;;;;15.25;10.35;;;;;;;7.02;81.30;99529.71;1768879;80;21226;-61
2023/03/27 05:04:57;;;;;;;13.50;10.08;;;;;;;7.06;81.32;99531.91;1786392;80;21787;-61
2023/03/27 05:08:00;;;;;;;12.95;9.73;;;;;;;7.12;81.30;99542.63;1787997;79;21190;-59
2023/03/27 05:11:09;;;;;;;13.55;10.48;;;;;;;7.18;81.32;99544.11;1786862;79;21361;-59
2023/03/27 05:14:17;;;;;;;13.88;9.98;;;;;;;7.22;81.31;99552.27;1787405;78;21235;-57
2023/03/27 05:17:24;;;;;;;12.78;9.65;;;;;;;7.28;81.38;99552.93;1787033;79;21262;-57
2023/03/27 05:20:33;;;;;;;14.18;9.98;;;;;;;7.32;81.36;99557.02;1785026;79;21240;-57
2023/03/27 05:23:41;;;;;;;15.40;10.48;;;;;;;7.38;81.42;99557.66;1738994;81;21188;-57
2023/03/27 05:26:47;;;;;;;12.55;9.48;;;;;;;7.44;81.49;99561.04;1723057;82;21208;-57
2023/03/27 05:29:54;;;;;;;12.25;9.63;;;;;;;7.53;81.54;99555.89;1740895;82;21240;-58
2023/03/27 05:33:00;;;;;;;12.13;9.90;;;;;;;7.63;81.61;99564.38;1741485;82;21193;-57
2023/03/27 05:36:08;;;;;;;12.90;9.63;;;;;;;7.72;81.66;99568.76;1741961;82;21407;-57
2023/03/27 05:39:15;;;;;;;13.15;9.45;;;;;;;7.79;81.64;99566.50;1724023;81;21184;-57
2023/03/27 05:42:22;;;;;;;12.95;8.80;;;;;;;7.87;81.67;99571.05;1702616;82;21296;-57
2023/03/27 05:45:29;;;;;;;15.68;9.53;;;;;;;7.94;81.72;99573.41;1735146;82;21849;-58
2023/03/27 05:48:35;;;;;;;12.80;9.15;;;;;;;8.01;81.64;99577.13;1708617;82;21184;-57
2023/03/27 05:51:41;;;;;;;13.88;9.40;;;;;;;8.05;81.62;99579.81;1756777;79;21212;-58
2023/03/27 05:54:47;;;;;;;14.00;9.63;;;;;;;8.11;81.64;99589.98;1761561;79;21706;-57
2023/03/27 05:57:53;;;;;;;12.37;9.10;;;;;;;8.20;81.67;99587.54;1785239;79;21205;-57
2023/03/27 06:01:02;;;;;;;10.10;8.48;;;;;;;8.26;81.63;99590.97;1779771;79;21217;-58
2023/03/27 06:04:07;;;;;;;13.58;9.55;;;;;;;8.31;81.65;99591.28;1782467;79;21167;-56
2023/03/27 06:07:17;;;;;;;12.15;8.55;;;;;;;8.39;81.66;99602.96;1775807;79;21558;-56
2023/03/27 06:10:25;;;;;;;11.43;8.90;;;;;;;8.47;81.70;99600.68;1789539;78;21174;-58
2023/03/27 06:13:38;;;;;;;12.68;10.05;;;;;;;8.54;81.66;99609.84;1783955;79;21734;-58
2023/03/27 06:16:47;;;;;;;13.62;8.90;;;;;;;8.59;81.64;99606.06;1785845;79;21200;-57
2023/03/27 06:20:11;;;;;;;11.90;8.60;;;;;;;8.66;81.67;99604.29;1764225;79;21538;-58
2023/03/27 06:23:16;;;;;;;11.40;8.80;;;;;;;8.74;81.68;99609.68;1771885;79;21569;-57
2023/03/27 06:26:21;;;;;;;15.53;9.05;;;;;;;8.78;81.67;99604.20;1787542;79;21201;-57
2023/03/27 06:29:28;;;;;;;13.53;9.38;;;;;;;8.86;81.71;99612.33;1743376;82;21197;-57
2023/03/27 06:32:35;;;;;;;11.43;8.50;;;;;;;8.93;81.72;99616.00;1744178;81;21782;-57
2023/03/27 06:35:42;;;;;;;11.83;8.35;;;;;;;9.03;81.79;99609.78;1697703;82;21209;-56
2023/03/27 06:38:50;;;;;;;12.10;8.38;;;;;;;9.13;81.82;99602.18;1729520;82;21268;-57
2023/03/27 06:41:57;;;;;;;12.15;8.68;;;;;;;9.24;81.87;99607.19;1751579;79;21224;-57
2023/03/27 06:45:15;;;;;;;11.48;8.58;;;;;;;9.35;81.93;99601.27;1747234;81;21189;-57
2023/03/27 06:48:23;;;;;;;12.13;8.23;;;;;;;9.47;81.94;99614.78;1722043;83;21214;-57
2023/03/27 06:51:31;;;;;;;9.68;8.13;;;;;;;9.58;81.94;99621.14;1785479;79;21191;-56
2023/03/27 06:54:38;;;;;;;9.68;7.65;;;;;;;9.65;81.82;99612.53;1757652;79;21220;-56
2023/03/27 06:57:53;;;;;;;11.00;7.80;;;;;;;9.76;81.81;99616.67;1791566;78;21221;-57
2023/03/27 07:01:21;;;;;;;11.45;7.75;;;;;;;9.83;81.75;99612.16;1787968;80;21203;-57
2023/03/27 07:04:45;;;;;;;11.10;7.95;;;;;;;9.91;81.77;99610.14;1780017;79;21219;-56
2023/03/27 07:07:55;;;;;;;10.82;7.28;;;;;;;10.00;81.78;99609.02;1757296;80;21538;-54
2023/03/27 07:11:05;;;;;;;9.75;7.33;;;;;;;10.10;81.80;99608.76;1696908;83;21218;-55
2023/03/27 07:14:18;;;;;;;11.53;7.47;;;;;;;10.20;81.88;99610.14;1764788;79;21207;-55
2023/03/27 07:17:23;;;;;;;8.65;6.65;;;;;;;10.30;81.86;99612.05;1756173;79;21565;-55
2023/03/27 07:20:32;;;;;;;9.65;7.05;;;;;;;10.37;81.80;99614.33;1755626;80;21254;-55
2023/03/27 07:23:40;;;;;;;7.67;6.72;;;;;;;10.43;81.77;99623.12;1768959;79;21215;-55
2023/03/27 07:26:55;;;;;;;9.05;7.17;;;;;;;10.50;81.74;99616.36;1756811;80;21230;-55
2023/03/27 07:30:01;;;;;;;8.45;6.33;;;;;;;10.61;81.78;99627.33;1756563;80;21203;-55
2023/03/27 07:33:12;;;;;;;8.00;5.65;;;;;;;10.70;81.75;99627.53;1758634;80;22079;-55
2023/03/27 07:36:16;;;;;;;7.05;5.65;;;;;;;10.78;81.72;99635.61;1761919;80;21218;-55
2023/03/27 07:39:27;;;;;;;7.97;6.58;;;;;;;10.86;81.66;99638.22;1757384;80;21195;-54
2023/03/27 07:42:33;;;;;;;7.35;5.97;;;;;;;10.94;81.64;99629.33;1771976;79;21352;-56
2023/03/27 07:45:42;;;;;;;8.15;5.65;;;;;;;11.06;81.72;99632.40;1783940;79;21937;-54
2023/03/27 07:48:49;;;;;;;7.87;5.55;;;;;;;11.19;81.75;99640.73;1783713;80;21245;-56
2023/03/27 07:51:55;;;;;;;10.32;5.50;;;;;;;11.28;81.74;99637.66;1786078;79;21306;-56
2023/03/27 07:55:03;;;;;;;7.17;5.50;;;;;;;11.37;81.63;99641.11;1814088;79;21319;-56
2023/03/27 07:58:16;;;;;;;7.10;5.30;;;;;;;11.44;81.61;99636.50;1815440;79;21197;-59
2023/03/27 08:01:26;;;;;;;6.83;5.28;;;;;;;11.52;81.59;99637.73;1823211;76;21265;-58
2023/03/27 08:04:33;;;;;;;5.40;4.35;;;;;;;11.59;81.47;99643.57;1786683;79;21582;-58
2023/03/27 08:07:44;;;;;;;7.08;5.05;;;;;;;11.64;81.39;99635.63;1802580;78;21200;-58
2023/03/27 08:10:55;;;;;;;6.92;5.25;;;;;;;11.71;81.39;99637.05;1785316;79;21205;-58
2023/03/27 08:14:04;;;;;;;7.62;4.60;;;;;;;11.81;81.40;99641.11;1815141;79;21412;-59
2023/03/27 08:17:11;;;;;;;6.65;5.05;;;;;;;11.92;81.40;99641.09;1815327;79;21285;-59
2023/03/27 08:20:18;;;;;;;7.45;3.67;;;;;;;11.99;81.31;99644.70;1811450;77;21209;-59
2023/03/27 08:23:29;;;;;;;7.78;4.85;;;;;;;12.11;81.31;99649.95;1796853;77;21196;-59
2023/03/27 08:26:40;;;;;;;6.08;3.95;;;;;;;12.20;81.19;99659.69;1812700;77;21214;-59
2023/03/27 08:29:47;;;;;;;7.08;4.70;;;;;;;12.21;81.03;99661.38;1812375;79;21202;-57
2023/03/27 08:32:53;;;;;;;6.35;4.50;;;;;;;12.28;80.99;99658.15;1784721;80;21563;-60
2023/03/27 08:35:52;;;;;;;8.05;4.80;;;;;;;12.35;80.94;99663.16;1784317;79;21215;-57
2023/03/27 08:39:01;;;;;;;6.28;4.47;;;;;;;12.45;80.91;99662.73;1809464;79;21174;-58
2023/03/27 08:42:12;;;;;;;7.10;4.40;;;;;;;12.47;80.85;99666.99;1816626;77;21317;-61
2023/03/27 08:45:27;;;;;;;5.95;4.00;;;;;;;12.57;80.81;99675.70;1810890;78;21178;-59
2023/03/27 08:49:01;;;;;;;7.80;4.45;;;;;;;12.63;80.72;99673.49;1807560;79;21291;-59
2023/03/27 08:52:22;;;;;;;8.33;5.42;;;;;;;12.69;80.62;99674.55;1721764;82;21541;-59
2023/03/27 08:55:44;;;;;;;6.55;3.87;;;;;;;12.78;80.56;99671.41;1809056;78;21786;-60
2023/03/27 08:58:56;;;;;;;6.00;4.10;;;;;;;12.88;80.50;99668.27;1809265;79;21198;-60
2023/03/27 09:02:28;;;;;;;4.87;4.05;;;;;;;13.06;80.60;99661.69;1810624;78;21253;-58
2023/03/27 09:06:00;;;;;;;5.22;4.42;;;;;;;13.22;80.58;99662.66;1778009;79;21237;-60
2023/03/27 09:09:41;;;;;;;5.75;4.40;;;;;;;13.39;80.47;99670.80;1801757;79;21747;-60
2023/03/27 09:13:19;;;;;;;5.37;4.33;;;;;;;13.45;80.25;99661.70;1807204;79;21334;-60
2023/03/27 09:16:48;;;;;;;5.35;4.08;;;;;;;13.56;80.24;99662.44;1808798;79;21205;-59
2023/03/27 09:20:09;;;;;;;4.83;4.08;;;;;;;13.70;80.12;99651.73;1808609;79;21261;-59
2023/03/27 09:23:23;;;;;;;4.60;3.40;;;;;;;13.81;79.92;99650.27;1808449;79;21261;-61
2023/03/27 09:26:43;;;;;;;5.85;4.15;;;;;;;13.94;79.85;99644.19;1807156;79;21277;-61
2023/03/27 09:29:53;;;;;;;5.65;3.80;;;;;;;14.03;79.59;99650.31;1809087;77;21186;-61
2023/03/27 09:33:12;;;;;;;5.85;3.95;;;;;;;14.05;79.35;99644.89;1809608;79;21215;-60
2023/03/27 09:36:20;;;;;;;6.40;4.03;;;;;;;14.05;79.19;99642.14;1784746;79;21635;-61
2023/03/27 09:39:39;;;;;;;4.70;3.62;;;;;;;14.01;78.96;99649.67;1809257;79;21261;-59
2023/03/27 09:42:50;;;;;;;4.80;3.90;;;;;;;13.90;78.84;99654.47;1779356;80;21297;-59
2023/03/27 09:45:59;;;;;;;4.60;2.98;;;;;;;13.86;78.88;99655.97;1751078;80;21290;-60
2023/03/27 09:49:26;;;;;;;4.17;2.80;;;;;;;13.87;78.89;99653.52;1728610;80;21642;-60
2023/03/27 09:52:46;;;;;;;5.30;2.92;;;;;;;13.88;78.93;99658.81;1770260;80;21199;-60
2023/03/27 09:56:11;;;;;;;7.78;4.25;;;;;;;13.92;78.89;99663.36;1780852;80;21219;-60
2023/03/27 09:59:36;;;;;;;5.15;3.77;;;;;;;14.04;78.91;99654.22;1782070;80;21254;-59
2023/03/27 10:02:47;;;;;;;5.08;3.90;;;;;;;14.21;78.96;99658.71;1781618;80;21552;-60
2023/03/27 10:05:53;;;;;;;6.08;3.15;;;;;;;14.40;78.99;99655.93;1748052;80;21221;-60
2023/03/27 10:09:07;;;;;;;4.62;3.00;;;;;;;14.60;78.94;99653.92;1754272;80;21199;-60
2023/03/27 10:12:26;;;;;;;5.85;2.83;;;;;;;14.78;78.69;99654.57;1757529;80;21307;-59
2023/03/27 10:15:47;;;;;;;4.30;2.85;;;;;;;14.87;78.54;99658.78;1746095;79;21211;-59
2023/03/27 10:18:59;;;;;;;6.35;3.58;;;;;;;15.03;78.34;99653.27;1751334;81;21357;-59
2023/03/27 10:22:11;;;;;;;3.35;2.60;;;;;;;15.12;78.12;99654.69;1756745;80;21536;-58
2023/03/27 10:25:28;;;;;;;6.53;2.95;;;;;;;15.27;78.08;99657.42;1759992;80;21194;-60
2023/03/27 10:28:44;;;;;;;7.33;3.37;;;;;;;15.48;78.01;99655.70;1775089;80;21736;-59
2023/03/27 10:32:03;;;;;;;4.37;2.30;;;;;;;15.55;77.73;99666.16;1777261;79;21221;-61
2023/03/27 10:35:33;;;;;;;4.78;2.85;;;;;;;15.58;77.54;99666.23;1789290;78;21786;-59
2023/03/27 10:38:46;;;;;;;4.97;2.92;;;;;;;15.66;77.32;99658.53;1784307;79;21718;-61
2023/03/27 10:42:13;;;;;;;3.87;2.37;;;;;;;15.81;77.25;99667.29;1779316;79;21249;-60
2023/03/27 10:45:26;;;;;;;12.18;7.72;;;;;;;15.92;77.17;99664.34;1771182;78;21185;-60
2023/03/27 10:48:40;;;;;;;3.67;2.55;;;;;;;16.13;77.20;99667.50;1746980;80;21201;-59
2023/03/27 10:52:29;;;;;;;3.98;2.37;;;;;;;16.22;76.84;99670.26;1729415;81;21247;-60
2023/03/27 10:56:11;;;;;;;5.03;2.00;;;;;;;16.23;76.69;99655.39;1755414;79;21746;-60
2023/03/27 10:59:26;;;;;;;3.87;1.60;;;;;;;16.44;76.57;99657.70;1746595;80;21693;-59
2023/03/27 11:02:57;;;;;;;2.92;2.00;;;;;;;16.60;76.28;99659.02;1733091;80;21260;-59
2023/03/27 11:06:03;;;;;;;4.08;1.98;;;;;;;16.70;76.13;99662.61;1703522;82;21287;-60
2023/03/27 11:09:43;;;;;;;3.42;2.10;;;;;;;16.87;76.17;99649.83;1725784;81;21265;-60
2023/03/27 11:13:01;;;;;;;12.53;6.78;;;;;;;17.03;76.02;99660.23;1740888;82;21220;-61
2023/03/27 11:16:20;;;;;;;2.92;2.10;;;;;;;17.11;75.73;99668.20;1725707;82;21217;-60
2023/03/27 11:20:05;;;;;;;2.40;1.80;;;;;;;17.26;75.83;99651.99;1752124;80;21200;-62
2023/03/27 11:23:21;;;;;;;2.35;1.85;;;;;;;17.50;75.79;99646.84;1754019;80;21220;-63
2023/03/27 11:26:45;;;;;;;2.95;1.90;;;;;;;17.72;75.77;99653.49;1765313;78;21223;-61
2023/03/27 11:30:07;;;;;;;3.33;1.92;;;;;;;17.89;75.48;99658.08;1774592;78;21171;-62
2023/03/27 11:33:26;;;;;;;2.72;1.92;;;;;;;18.00;75.11;99656.38;1774159;79;21225;-62
2023/03/27 11:36:53;;;;;;;3.20;1.90;;;;;;;17.99;74.61;99656.09;1752312;80;21881;-61
2023/03/27 11:40:12;;;;;;;2.30;1.50;;;;;;;18.02;74.29;99655.61;1723804;81;21204;-62
2023/03/27 11:43:25;;;;;;;2.15;1.50;;;;;;;18.07;74.04;99652.95;1751465;80;21213;-62
2023/03/27 11:47:00;;;;;;;2.98;1.45;;;;;;;18.02;73.67;99654.22;1747716;79;21231;-63
2023/03/27 11:50:22;;;;;;;1.75;1.45;;;;;;;18.05;73.71;99659.27;1754780;81;21780;-62
2023/03/27 11:54:10;;;;;;;2.70;1.55;;;;;;;18.07;73.48;99652.95;1775179;79;21171;-61
2023/03/27 11:57:31;;;;;;;2.90;1.57;;;;;;;18.21;73.36;99657.16;1766153;80;21251;-62
2023/03/27 12:00:58;;;;;;;3.00;2.00;;;;;;;18.30;72.94;99659.84;1773484;79;21199;-61
2023/03/27 12:04:41;;;;;;;1.67;1.30;;;;;;;18.24;72.46;99670.52;1761997;80;21234;-62
2023/03/27 12:08:17;;;;;;;1.72;1.30;;;;;;;18.03;71.95;99664.77;1762797;80;21216;-62
2023/03/27 12:11:23;;;;;;;3.25;1.72;;;;;;;17.62;71.45;99668.45;1761045;81;21200;-61
2023/03/27 12:14:47;;;;;;;2.33;1.22;;;;;;;17.58;71.74;99660.34;1735958;80;21225;-60
2023/03/27 12:18:24;;;;;;;2.72;1.70;;;;;;;17.81;72.07;99657.05;1780799;79;21195;-58
2023/03/27 12:22:00;;;;;;;2.58;1.80;;;;;;;18.19;72.19;99662.66;1769132;79;21722;-59
2023/03/27 12:25:38;;;;;;;5.20;3.00;;;;;;;18.50;71.80;99655.34;1742085;80;21565;-57
2023/03/27 12:29:33;;;;;;;1.45;1.35;;;;;;;18.62;71.50;99666.69;1719303;82;21388;-60
2023/03/27 12:33:04;;;;;;;1.50;1.20;;;;;;;18.88;71.30;99662.52;1686384;83;21230;-59
2023/03/27 12:36:13;;;;;;;1.40;1.30;;;;;;;18.82;70.41;99665.71;1753772;80;21212;-58
2023/03/27 12:39:30;;;;;;;3.55;1.52;;;;;;;18.67;70.04;99662.64;1717215;81;21297;-58
2023/03/27 12:43:00;;;;;;;3.98;2.60;;;;;;;18.72;70.05;99660.52;1747387;80;21734;-59
2023/03/27 12:46:23;;;;;;;2.27;1.62;;;;;;;18.85;70.00;99665.22;1736617;80;21237;-58
2023/03/27 12:49:46;;;;;;;2.15;1.47;;;;;;;18.93;69.75;99657.89;1792319;79;21215;-58
2023/03/27 12:52:55;;;;;;;1.80;1.20;;;;;;;19.00;69.22;99663.30;1789550;79;21246;-59
2023/03/27 12:56:27;;;;;;;3.35;1.50;;;;;;;19.01;68.92;99656.68;1776422;80;21218;-60
2023/03/27 12:59:34;;;;;;;1.85;1.20;;;;;;;19.10;68.84;99660.20;1768225;80;21179;-59
2023/03/27 13:03:22;;;;;;;2.02;1.50;;;;;;;19.10;68.19;99653.25;1767461;79;21209;-59
2023/03/27 13:06:49;;;;;;;2.65;1.47;;;;;;;19.02;67.78;99656.43;1782008;79;21228;-59
2023/03/27 13:10:43;;;;;;;2.00;1.52;;;;;;;19.01;67.41;99654.72;1788822;77;21246;-58
2023/03/27 13:14:15;;;;;;;3.87;2.00;;;;;;;18.98;66.93;99646.91;1755968;80;21716;-58
2023/03/27 13:17:45;;;;;;;2.62;1.55;;;;;;;18.88;66.36;99655.58;1784159;80;21212;-59
2023/03/27 13:21:18;;;;;;;2.05;1.12;;;;;;;18.73;66.07;99654.72;1785106;78;21203;-58
2023/03/27 13:24:44;;;;;;;1.80;1.40;;;;;;;18.62;65.87;99650.05;1783666;79;21201;-58
2023/03/27 13:28:20;;;;;;;4.15;2.60;;;;;;;18.66;65.61;99648.46;1771895;79;21809;-58
2023/03/27 13:31:54;;;;;;;3.12;1.85;;;;;;;18.74;65.32;99645.30;1777574;79;21202;-59
2023/03/27 13:35:16;;;;;;;3.25;1.60;;;;;;;18.77;65.04;99660.09;1788385;78;21796;-57
2023/03/27 13:38:22;;;;;;;8.00;3.02;;;;;;;18.73;64.68;99653.87;1785152;78;21540;-58
2023/03/27 13:41:53;;;;;;;2.83;2.00;;;;;;;18.63;64.24;99657.27;1785532;78;21764;-58
2023/03/27 13:45:25;;;;;;;2.80;1.80;;;;;;;18.56;64.09;99657.97;1784198;80;21482;-58
2023/03/27 13:49:31;;;;;;;2.45;1.40;;;;;;;18.59;63.96;99661.64;1776540;78;21235;-63
2023/03/27 13:53:19;;;;;;;1.87;1.50;;;;;;;18.73;63.77;99657.49;1779425;79;21207;-63
2023/03/27 13:57:12;;;;;;;3.35;1.50;;;;;;;18.84;63.37;99653.84;1774577;79;21747;-63
2023/03/27 14:00:47;;;;;;;3.15;1.42;;;;;;;18.87;62.96;99660.27;1780658;79;21815;-63
2023/03/27 14:04:12;;;;;;;1.90;1.52;;;;;;;18.95;62.63;99660.41;1780378;79;21239;-56
2023/03/27 14:07:44;;;;;;;2.27;1.52;;;;;;;19.02;62.09;99663.90;1768724;79;21234;-58
2023/03/27 14:11:15;;;;;;;3.60;1.80;;;;;;;18.92;61.72;99664.54;1752344;80;21313;-57
2023/03/27 14:14:41;;;;;;;2.77;1.75;;;;;;;18.84;61.52;99661.30;1769401;80;21204;-57
2023/03/27 14:18:26;;;;;;;1.85;1.30;;;;;;;18.79;61.18;99658.45;1753102;80;21208;-58
2023/03/27 14:21:35;;;;;;;5.80;1.87;;;;;;;18.73;60.84;99658.87;1752598;80;22073;-58
2023/03/27 14:24:44;;;;;;;5.35;1.47;;;;;;;18.61;60.26;99654.46;1752930;80;21455;-58
2023/03/27 14:28:00;;;;;;;2.50;1.47;;;;;;;18.51;60.08;99651.46;1771796;80;21255;-58
2023/03/27 14:31:07;;;;;;;2.40;1.55;;;;;;;18.41;59.89;99642.95;1778654;79;21195;-58
2023/03/27 14:34:33;;;;;;;3.67;1.65;;;;;;;18.36;59.76;99649.73;1757471;80;21196;-58
2023/03/27 14:37:52;;;;;;;2.77;1.80;;;;;;;18.28;59.48;99647.33;1749833;80;21235;-58
2023/03/27 14:41:06;;;;;;;4.78;2.40;;;;;;;18.16;59.21;99649.26;1753693;79;21218;-58
2023/03/27 14:44:20;;;;;;;6.50;3.67;;;;;;;18.00;58.98;99656.38;1780971;80;21246;-58
2023/03/27 14:47:27;;;;;;;5.42;3.00;;;;;;;17.85;58.81;99651.31;1754339;80;21196;-58
2023/03/27 14:50:34;;;;;;;2.92;1.80;;;;;;;17.75;58.57;99655.25;1728376;81;21227;-58
2023/03/27 14:53:45;;;;;;;4.53;1.95;;;;;;;17.65;58.36;99654.98;1675446;85;21208;-56
2023/03/27 14:56:53;;;;;;;2.90;1.95;;;;;;;17.56;58.13;99655.58;1740197;81;21222;-57
2023/03/27 15:00:05;;;;;;;2.95;1.70;;;;;;;17.42;57.82;99651.31;1754504;81;21182;-58
2023/03/27 15:03:15;;;;;;;3.58;1.60;;;;;;;17.33;57.64;99657.72;1704935;81;21226;-58
2023/03/27 15:06:25;;;;;;;6.10;1.97;;;;;;;17.22;57.44;99653.56;1722778;83;21779;-59
2023/03/27 15:09:32;;;;;;;15.28;11.35;;;;;;;17.13;57.26;99656.34;1703614;83;21214;-59
2023/03/27 15:12:52;;;;;;;5.08;3.47;;;;;;;17.04;57.10;99654.99;1724265;82;21309;-58
2023/03/27 15:16:05;;;;;;;6.67;3.80;;;;;;;16.97;56.91;99652.32;1719401;82;21226;-58
2023/03/27 15:19:26;;;;;;;10.58;4.80;;;;;;;16.88;56.71;99644.06;1703995;83;21237;-58
2023/03/27 15:22:39;;;;;;;20.25;8.80;;;;;;;16.76;56.42;99647.85;1722788;83;21221;-58